Turks and Caicos Islands Weather

[source: ADDS]
METAR
MBPV 270430Z 2706/2806 09012KT 9999 SCT015 FM271800 09010G20KT 8000 SHRA SCT015CB BKN035 MBGT 271740Z 2718/2818 09012KT 9999 SCT016 PROB30 TEMPO 2800/2804 05015G25KT 7000 SHRA FEW015CB SCT018 BKN035 PROB30 2814/2818 03018G18KT 4800 TSRA SCT014CB BKN016 TAF
MBPV 270430Z 2706/2806 09012KT 9999 SCT015 FM271800 09010G20KT 8000 SHRA SCT015CB BKN035 =
MBGT 271740Z 2718/2818 09012KT 9999 SCT016 PROB30 TEMPO 2800/2804 05015G25KT 7000 SHRA FEW015CB SCT018 BKN035 PROB30 2814/2818 03018G18KT 4800 TSRA SCT014CB BKN016 =
SR / SS: 11:09 / 22:05 UTC (MBPV 2014-11-27)
E-mail Print PDF
Weather